Terminal Aerodrome Forecast
Issued by NWS

Home | Current Version | Previous Version | Text Only | Print | Product List | Glossary On
Versions: 1 2 3 4 5 6 7 8 9 10 11 12 13 14 15 16 17
622
FTUS43 KDLH 241140
TAFBRD
TAF
KBRD 241140Z 2412/2512 36005KT 4SM BR OVC003
     FM241800 01008KT P6SM OVC010
     FM242100 02009KT P6SM SCT025
     FM250200 05006KT P6SM SCT020=

USA.gov is the U.S. government's official web portal to all federal, state and local government web resources and services.